Time;durP1;ratioP1;P1;durP2;ratioP2;P2;SDS_P1;SDS_P2;PMS_P1;PMS_P2;Temp;Humidity;BMP_temperature;BMP_pressure;BME280_temperature;BME280_humidity;BME280_pressure;Samples;Min_cycle;Max_cycle;Signal;HPM_P1;HPM_P2
2021/12/26 00:00:28;;;;;;;10.77;6.60;;;;;;;-1.71;100.00;98113.50;4973840;28;20065;-59
2021/12/26 00:02:54;;;;;;;13.77;6.93;;;;;;;-1.66;100.00;98106.91;4972134;28;20030;-58
2021/12/26 00:05:21;;;;;;;16.43;7.27;;;;;;;-1.62;100.00;98103.63;4970991;28;20038;-56
2021/12/26 00:07:47;;;;;;;20.30;8.20;;;;;;;-1.59;100.00;98114.59;4973549;28;20495;-57
2021/12/26 00:10:15;;;;;;;15.40;8.30;;;;;;;-1.72;100.00;98124.34;4971637;28;20202;-57
2021/12/26 00:12:40;;;;;;;21.13;9.47;;;;;;;-1.69;100.00;98116.88;4970008;28;20121;-56
2021/12/26 00:15:07;;;;;;;19.90;8.50;;;;;;;-1.75;100.00;98121.78;4946197;28;20392;-57
2021/12/26 00:17:32;;;;;;;17.43;7.63;;;;;;;-1.73;100.00;98132.69;4972494;28;20023;-54
2021/12/26 00:19:58;;;;;;;35.83;12.17;;;;;;;-1.70;100.00;98135.31;4970302;28;20127;-54
2021/12/26 00:22:24;;;;;;;49.63;16.53;;;;;;;-1.60;100.00;98134.66;4972710;28;20098;-59
2021/12/26 00:24:50;;;;;;;26.17;9.77;;;;;;;-1.75;100.00;98141.88;4976559;28;20216;-58
2021/12/26 00:27:18;;;;;;;22.43;9.37;;;;;;;-1.71;100.00;98133.59;4978545;28;20102;-57
2021/12/26 00:29:44;;;;;;;12.73;7.10;;;;;;;-1.74;100.00;98129.34;4980414;28;20524;-58
2021/12/26 00:32:09;;;;;;;13.57;6.67;;;;;;;-1.66;100.00;98132.88;4975238;28;20034;-58
2021/12/26 00:34:35;;;;;;;12.33;6.20;;;;;;;-1.69;100.00;98130.28;4971301;28;20038;-58
2021/12/26 00:37:01;;;;;;;12.70;5.97;;;;;;;-1.65;100.00;98124.50;4977518;28;20042;-57
2021/12/26 00:39:26;;;;;;;9.00;5.60;;;;;;;-1.59;100.00;98133.84;4970068;28;20065;-58
2021/12/26 00:41:53;;;;;;;12.33;7.17;;;;;;;-1.71;100.00;98136.97;4969526;28;20216;-56
2021/12/26 00:44:18;;;;;;;12.03;6.63;;;;;;;-1.59;100.00;98127.16;4970644;28;20552;-57
2021/12/26 00:46:45;;;;;;;13.90;6.50;;;;;;;-1.47;100.00;98137.44;4972511;28;20136;-57
2021/12/26 00:49:11;;;;;;;11.63;6.17;;;;;;;-1.51;100.00;98134.84;4969549;28;20393;-56
2021/12/26 00:51:37;;;;;;;13.10;6.93;;;;;;;-1.48;100.00;98144.94;4972408;28;20026;-59
2021/12/26 00:54:03;;;;;;;9.83;6.33;;;;;;;-1.47;100.00;98137.44;4972042;28;20440;-59
2021/12/26 00:56:28;;;;;;;10.37;5.70;;;;;;;-1.42;100.00;98135.03;4972493;28;20042;-57
2021/12/26 00:58:54;;;;;;;11.70;6.13;;;;;;;-1.66;100.00;98129.53;4970674;28;20440;-58
2021/12/26 01:01:19;;;;;;;12.87;7.07;;;;;;;-1.56;100.00;98138.94;4967434;28;20030;-57
2021/12/26 01:03:45;;;;;;;13.83;7.17;;;;;;;-1.55;100.00;98143.13;4972929;28;20057;-55
2021/12/26 01:06:11;;;;;;;12.23;6.40;;;;;;;-1.46;100.00;98145.84;4973005;28;20457;-58
2021/12/26 01:08:40;;;;;;;10.67;6.43;;;;;;;-1.46;100.00;98149.22;4969423;28;20233;-58
2021/12/26 01:11:23;;;;;;;12.17;6.50;;;;;;;-1.58;100.00;98141.44;4966681;28;20043;-57
2021/12/26 01:13:49;;;;;;;12.63;6.30;;;;;;;-1.68;100.00;98147.06;4971276;28;20553;-58
2021/12/26 01:16:16;;;;;;;12.00;7.13;;;;;;;-1.60;100.00;98153.09;4976194;28;20318;-57
2021/12/26 01:18:55;;;;;;;11.73;6.50;;;;;;;-1.56;100.00;98152.34;4972783;28;20088;-55
2021/12/26 01:21:25;;;;;;;12.03;6.47;;;;;;;-1.68;100.00;98153.75;4968872;28;20432;-55
2021/12/26 01:23:59;;;;;;;12.57;6.87;;;;;;;-1.63;100.00;98153.03;4975375;28;20029;-55
2021/12/26 01:26:24;;;;;;;16.43;7.30;;;;;;;-1.77;100.00;98154.41;4971345;28;20340;-57
2021/12/26 01:28:50;;;;;;;8.73;6.07;;;;;;;-1.58;100.00;98156.50;4968605;28;20328;-58
2021/12/26 01:31:19;;;;;;;10.73;6.83;;;;;;;-1.58;100.00;98148.13;4972686;28;20057;-57
2021/12/26 01:34:11;;;;;;;11.80;7.13;;;;;;;-1.62;100.00;98146.34;4976305;28;20061;-56
2021/12/26 01:36:36;;;;;;;11.07;6.13;;;;;;;-1.46;100.00;98148.34;4965758;28;20038;-55
2021/12/26 01:39:07;;;;;;;15.47;6.93;;;;;;;-1.62;100.00;98144.69;4969117;28;20034;-56
2021/12/26 01:41:33;;;;;;;11.03;6.30;;;;;;;-1.59;100.00;98147.25;4970147;28;20049;-55
2021/12/26 01:44:04;;;;;;;18.23;7.13;;;;;;;-1.65;100.00;98143.75;4971400;28;20404;-56
2021/12/26 01:46:29;;;;;;;11.87;6.27;;;;;;;-1.56;100.00;98148.97;4954840;28;20034;-58
2021/12/26 01:49:23;;;;;;;15.43;7.07;;;;;;;-1.61;100.00;98146.38;4968220;28;20098;-56
2021/12/26 01:51:51;;;;;;;17.73;8.77;;;;;;;-1.62;98.68;98139.66;4970551;28;20118;-57
2021/12/26 01:57:18;;;;;;;21.83;10.83;;;;;;;-1.69;100.00;98142.84;4950406;28;20038;-57
2021/12/26 01:59:46;;;;;;;15.20;7.10;;;;;;;-1.64;100.00;98150.47;4971451;28;20273;-55
2021/12/26 02:02:13;;;;;;;11.37;6.63;;;;;;;-1.75;100.00;98146.91;4976350;28;20146;-55
2021/12/26 02:04:40;;;;;;;12.27;6.97;;;;;;;-1.72;100.00;98152.00;4971226;28;20528;-58
2021/12/26 02:07:07;;;;;;;10.30;6.43;;;;;;;-1.61;100.00;98148.06;4967274;28;20133;-56
2021/12/26 02:09:33;;;;;;;12.40;6.40;;;;;;;-1.63;100.00;98140.47;4971088;28;20472;-58
2021/12/26 02:11:59;;;;;;;10.87;6.30;;;;;;;-1.51;100.00;98144.91;4972682;28;20045;-57
2021/12/26 02:14:25;;;;;;;12.93;7.37;;;;;;;-1.48;100.00;98153.34;4970011;28;20389;-59
2021/12/26 02:16:51;;;;;;;10.50;5.77;;;;;;;-1.51;100.00;98158.31;4969466;28;20038;-56
2021/12/26 02:19:17;;;;;;;11.67;6.83;;;;;;;-1.49;100.00;98155.84;4975385;28;20118;-57
2021/12/26 02:22:02;;;;;;;13.20;6.60;;;;;;;-1.48;100.00;98158.38;4971667;28;20038;-58
2021/12/26 02:29:55;;;;;;;12.23;6.60;;;;;;;-1.43;100.00;98158.47;4973929;28;20087;-57
2021/12/26 02:32:21;;;;;;;11.63;5.93;;;;;;;-1.38;100.00;98156.91;4977120;28;20392;-57
2021/12/26 02:34:46;;;;;;;11.57;7.13;;;;;;;-1.42;100.00;98150.13;4972670;28;20042;-58
2021/12/26 02:37:12;;;;;;;11.50;6.83;;;;;;;-1.43;100.00;98159.31;4969753;28;20034;-58
2021/12/26 02:39:39;;;;;;;11.70;6.10;;;;;;;-1.39;100.00;98156.03;4969253;28;20038;-56
2021/12/26 02:42:05;;;;;;;10.77;6.47;;;;;;;-1.34;100.00;98153.63;4973244;28;20030;-57
2021/12/26 02:44:30;;;;;;;11.87;6.70;;;;;;;-1.32;100.00;98157.03;4975668;28;20034;-58
2021/12/26 02:46:57;;;;;;;18.80;6.37;;;;;;;-1.35;100.00;98148.56;4975499;28;20056;-58
2021/12/26 02:49:24;;;;;;;13.23;6.60;;;;;;;-1.32;100.00;98151.16;4973240;28;20046;-61
2021/12/26 02:51:51;;;;;;;18.60;7.97;;;;;;;-1.47;100.00;98157.56;4974737;28;20362;-54
2021/12/26 02:54:17;;;;;;;11.83;7.23;;;;;;;-1.44;100.00;98156.75;4977657;28;20034;-58
2021/12/26 02:56:42;;;;;;;11.17;6.80;;;;;;;-1.48;100.00;98155.00;4971598;28;20549;-59
2021/12/26 02:59:08;;;;;;;14.20;7.10;;;;;;;-1.43;100.00;98156.81;4972421;28;20038;-58
2021/12/26 03:01:34;;;;;;;13.57;7.50;;;;;;;-1.45;100.00;98157.59;4973769;28;20145;-56
2021/12/26 03:03:59;;;;;;;18.13;9.00;;;;;;;-1.41;100.00;98156.84;4977655;28;20205;-58
2021/12/26 03:06:34;;;;;;;23.63;10.93;;;;;;;-1.36;100.00;98151.91;4973764;28;20618;-56
2021/12/26 03:09:00;;;;;;;24.73;11.80;;;;;;;-1.31;100.00;98160.38;4969664;28;20088;-56
2021/12/26 03:11:26;;;;;;;16.67;8.70;;;;;;;-1.49;100.00;98160.88;4975698;28;20204;-57
2021/12/26 03:13:52;;;;;;;12.30;6.03;;;;;;;-1.60;100.00;98158.13;4974787;28;20027;-53
2021/12/26 03:16:17;;;;;;;11.23;6.40;;;;;;;-1.50;100.00;98157.50;4969578;28;20414;-57
2021/12/26 03:18:43;;;;;;;11.33;6.33;;;;;;;-1.47;100.00;98146.66;4973136;28;20126;-57
2021/12/26 03:21:09;;;;;;;11.43;6.30;;;;;;;-1.46;100.00;98150.88;4972672;28;20532;-58
2021/12/26 03:23:34;;;;;;;12.00;7.27;;;;;;;-1.41;100.00;98147.66;4972574;28;20027;-58
2021/12/26 03:26:03;;;;;;;9.90;5.90;;;;;;;-1.44;100.00;98144.19;4974821;28;20053;-59
2021/12/26 03:28:29;;;;;;;11.77;6.23;;;;;;;-1.52;100.00;98144.03;4969833;28;20108;-57
2021/12/26 03:30:56;;;;;;;10.97;5.03;;;;;;;-1.48;100.00;98147.47;4974284;28;20109;-60
2021/12/26 03:33:22;;;;;;;11.30;5.93;;;;;;;-1.48;100.00;98139.94;4972745;28;20561;-58
2021/12/26 03:35:48;;;;;;;12.57;6.47;;;;;;;-1.55;100.00;98141.47;4969664;28;20494;-57
2021/12/26 03:38:15;;;;;;;10.37;5.60;;;;;;;-1.48;100.00;98139.94;4971862;28;20018;-55
2021/12/26 03:40:41;;;;;;;10.50;6.40;;;;;;;-1.53;100.00;98134.81;4971631;28;20048;-58
2021/12/26 03:43:08;;;;;;;14.20;6.27;;;;;;;-1.55;100.00;98144.00;4971793;28;20038;-58
2021/12/26 03:45:35;;;;;;;13.27;7.17;;;;;;;-1.51;100.00;98139.88;4969936;28;20046;-57
2021/12/26 03:48:01;;;;;;;12.77;6.40;;;;;;;-1.60;100.00;98149.72;4971788;28;20041;-59
2021/12/26 03:50:28;;;;;;;11.60;5.73;;;;;;;-1.53;100.00;98156.59;4973130;28;20030;-59
2021/12/26 03:52:57;;;;;;;10.80;6.07;;;;;;;-1.49;100.00;98151.66;4971429;28;20043;-60
2021/12/26 03:55:26;;;;;;;13.17;6.07;;;;;;;-1.63;100.00;98152.19;4970010;28;20054;-56
2021/12/26 03:57:53;;;;;;;10.30;5.10;;;;;;;-1.58;100.00;98153.13;4970885;28;20472;-59
2021/12/26 04:00:20;;;;;;;12.90;6.37;;;;;;;-1.55;100.00;98161.59;4973275;28;20113;-58
2021/12/26 04:02:46;;;;;;;14.60;6.80;;;;;;;-1.61;100.00;98155.59;4961926;28;20046;-58
2021/12/26 04:05:14;;;;;;;11.57;6.13;;;;;;;-1.55;100.00;98168.28;4971265;28;20049;-58
2021/12/26 04:07:40;;;;;;;9.87;5.90;;;;;;;-1.58;100.00;98170.72;4971394;28;20416;-59
2021/12/26 04:10:06;;;;;;;10.83;6.17;;;;;;;-1.67;100.00;98168.88;4973023;28;20591;-57
2021/12/26 04:12:36;;;;;;;13.27;6.73;;;;;;;-1.68;100.00;98168.81;4970010;28;20232;-57
2021/12/26 04:15:08;;;;;;;12.67;6.10;;;;;;;-1.64;100.00;98168.94;4969770;28;20157;-60
2021/12/26 04:17:34;;;;;;;13.97;7.23;;;;;;;-1.75;100.00;98170.38;4973873;28;20046;-56
2021/12/26 04:19:59;;;;;;;11.90;5.90;;;;;;;-1.71;100.00;98163.75;4980005;28;20038;-60
2021/12/26 04:22:25;;;;;;;12.60;7.40;;;;;;;-1.72;100.00;98167.06;4972480;28;20042;-58
2021/12/26 04:24:52;;;;;;;14.10;7.27;;;;;;;-1.63;100.00;98167.25;4975550;28;20176;-57
2021/12/26 04:27:17;;;;;;;14.23;6.30;;;;;;;-1.75;100.00;98172.88;4972498;28;20507;-58
2021/12/26 04:29:42;;;;;;;15.00;7.07;;;;;;;-1.72;100.00;98167.91;4972829;28;20149;-60
2021/12/26 04:32:08;;;;;;;12.77;7.30;;;;;;;-1.73;100.00;98167.88;4970357;28;20042;-60
2021/12/26 04:34:33;;;;;;;9.27;5.77;;;;;;;-1.76;100.00;98171.19;4968649;28;20043;-60
2021/12/26 04:36:59;;;;;;;10.43;5.67;;;;;;;-1.70;100.00;98171.31;4968581;28;20042;-61
2021/12/26 04:39:24;;;;;;;13.73;6.50;;;;;;;-1.71;100.00;98169.63;4971827;28;20070;-61
2021/12/26 04:41:49;;;;;;;10.17;6.07;;;;;;;-1.67;100.00;98173.91;4968002;28;20201;-62
2021/12/26 04:44:15;;;;;;;10.03;5.47;;;;;;;-1.69;100.00;98169.63;4971944;28;20034;-62
2021/12/26 04:46:41;;;;;;;12.57;6.73;;;;;;;-1.62;100.00;98179.03;4970833;28;20034;-62
2021/12/26 04:49:06;;;;;;;20.73;8.03;;;;;;;-1.72;100.00;98177.97;4971576;28;20796;-61
2021/12/26 04:51:32;;;;;;;29.77;12.30;;;;;;;-1.72;100.00;98174.59;4969055;28;20039;-60
2021/12/26 04:53:57;;;;;;;21.63;9.53;;;;;;;-1.70;100.00;98173.00;4970695;28;20129;-60
2021/12/26 04:56:23;;;;;;;17.27;8.67;;;;;;;-1.73;100.00;98180.44;4974240;28;20331;-61
2021/12/26 04:58:48;;;;;;;14.40;7.77;;;;;;;-1.69;100.00;98177.16;4974604;28;20446;-61
2021/12/26 05:01:14;;;;;;;23.10;12.83;;;;;;;-1.76;100.00;98175.34;4970003;28;20054;-60
2021/12/26 05:03:40;;;;;;;17.53;10.30;;;;;;;-1.88;100.00;98176.78;4970015;28;20065;-61
2021/12/26 05:06:06;;;;;;;19.73;11.40;;;;;;;-1.89;100.00;98174.22;4969002;28;20044;-59
2021/12/26 05:08:32;;;;;;;29.53;15.87;;;;;;;-1.89;100.00;98174.22;4969867;28;20135;-59
2021/12/26 05:10:57;;;;;;;29.47;14.90;;;;;;;-1.91;100.00;98164.13;4971983;28;20502;-61
2021/12/26 05:13:22;;;;;;;20.63;11.77;;;;;;;-1.91;100.00;98170.84;4968052;28;20141;-59
2021/12/26 05:15:48;;;;;;;36.93;17.93;;;;;;;-1.86;100.00;98175.16;4970534;28;20480;-60
2021/12/26 05:18:14;;;;;;;23.50;11.87;;;;;;;-1.85;100.00;98176.84;4967253;28;20034;-60
2021/12/26 05:20:39;;;;;;;19.70;11.13;;;;;;;-1.89;100.00;98175.09;4967631;28;20034;-60
2021/12/26 05:23:04;;;;;;;18.20;8.80;;;;;;;-1.89;100.00;98175.09;4969405;28;20022;-60
2021/12/26 05:25:30;;;;;;;17.37;8.67;;;;;;;-1.97;100.00;98171.56;4973300;28;20084;-60
2021/12/26 05:27:56;;;;;;;12.07;7.27;;;;;;;-1.92;100.00;98174.19;4972887;28;20023;-61
2021/12/26 05:30:23;;;;;;;13.03;6.87;;;;;;;-1.93;100.00;98177.50;4969595;28;20027;-60
2021/12/26 05:32:49;;;;;;;13.07;6.07;;;;;;;-1.95;100.00;98179.97;4978533;28;20481;-61
2021/12/26 05:35:15;;;;;;;12.53;7.30;;;;;;;-1.98;100.00;98187.44;4980386;28;20026;-61
2021/12/26 05:37:41;;;;;;;11.00;5.40;;;;;;;-2.07;100.00;98187.22;4974749;28;20022;-60
2021/12/26 05:40:09;;;;;;;10.43;6.30;;;;;;;-1.99;100.00;98190.75;4974039;28;20031;-60
2021/12/26 05:42:35;;;;;;;12.73;6.80;;;;;;;-2.03;100.00;98195.66;4974626;28;20029;-61
2021/12/26 05:45:01;;;;;;;13.67;6.47;;;;;;;-2.00;99.54;98198.28;4973302;28;20109;-59
2021/12/26 05:47:26;;;;;;;13.33;6.00;;;;;;;-2.00;99.62;98193.25;4968898;28;20029;-59
2021/12/26 05:49:52;;;;;;;11.43;6.60;;;;;;;-1.97;97.81;98196.66;4966492;28;20065;-60
2021/12/26 05:52:20;;;;;;;13.87;6.73;;;;;;;-1.95;96.99;98196.69;4971203;28;20045;-61
2021/12/26 05:54:47;;;;;;;16.47;7.30;;;;;;;-2.03;96.26;98186.47;4971229;28;20363;-61
2021/12/26 05:57:13;;;;;;;15.27;5.90;;;;;;;-2.05;96.99;98188.13;4971864;28;20512;-60
2021/12/26 05:59:38;;;;;;;13.03;6.50;;;;;;;-2.08;96.85;98187.19;4967677;28;20038;-60
2021/12/26 06:02:04;;;;;;;14.37;6.47;;;;;;;-2.09;96.29;98193.03;4973600;28;20030;-61
2021/12/26 06:04:29;;;;;;;11.93;5.53;;;;;;;-2.18;96.62;98196.16;4968407;28;20030;-59
2021/12/26 06:06:55;;;;;;;12.00;6.07;;;;;;;-2.06;95.16;98208.16;4966282;28;20050;-60
2021/12/26 06:09:20;;;;;;;12.37;5.83;;;;;;;-2.07;93.24;98211.47;4971507;28;20035;-61
2021/12/26 06:11:46;;;;;;;12.03;6.37;;;;;;;-2.10;92.54;98209.75;4976041;28;20031;-59
2021/12/26 06:14:12;;;;;;;8.87;5.10;;;;;;;-2.19;91.91;98206.16;4968522;28;20026;-60
2021/12/26 06:16:37;;;;;;;14.40;6.53;;;;;;;-2.11;90.84;98212.22;4967346;28;20408;-60
2021/12/26 06:19:03;;;;;;;9.63;5.37;;;;;;;-2.16;91.89;98206.22;4967613;28;20038;-60
2021/12/26 06:21:29;;;;;;;11.13;5.97;;;;;;;-2.20;93.05;98212.84;4969639;28;20030;-59
2021/12/26 06:23:54;;;;;;;12.73;6.80;;;;;;;-2.22;93.33;98217.00;4975652;28;20034;-60
2021/12/26 06:26:22;;;;;;;16.33;6.43;;;;;;;-2.23;94.60;98220.31;4970925;28;20027;-60
2021/12/26 06:28:48;;;;;;;10.07;5.83;;;;;;;-2.25;97.32;98219.44;4967968;28;20077;-60
2021/12/26 06:31:15;;;;;;;12.23;6.67;;;;;;;-2.29;99.71;98222.66;4968855;28;20120;-60
2021/12/26 06:33:41;;;;;;;14.60;7.20;;;;;;;-2.29;100.00;98217.63;4967946;28;20506;-60
2021/12/26 06:36:08;;;;;;;14.33;6.50;;;;;;;-2.27;100.00;98222.72;4966766;28;20039;-61
2021/12/26 06:38:35;;;;;;;13.03;6.73;;;;;;;-2.19;100.00;98229.63;4971738;28;20073;-59
2021/12/26 06:41:02;;;;;;;12.53;6.30;;;;;;;-2.18;100.00;98218.78;4968758;28;20480;-59
2021/12/26 06:43:27;;;;;;;13.77;6.57;;;;;;;-2.16;100.00;98229.69;4949698;28;20043;-61
2021/12/26 06:45:54;;;;;;;13.33;6.20;;;;;;;-2.12;100.00;98231.44;4967120;28;20320;-59
2021/12/26 06:48:21;;;;;;;14.50;7.30;;;;;;;-2.15;100.00;98233.03;4970597;28;20228;-61
2021/12/26 06:50:47;;;;;;;10.93;5.57;;;;;;;-2.10;100.00;98234.00;4973311;28;20027;-61
2021/12/26 06:53:13;;;;;;;10.40;6.33;;;;;;;-2.08;100.00;98238.25;4971872;28;20062;-61
2021/12/26 06:55:39;;;;;;;12.13;5.70;;;;;;;-2.05;100.00;98245.88;4969118;28;20121;-59
2021/12/26 06:58:06;;;;;;;13.17;6.67;;;;;;;-2.01;100.00;98239.25;4975874;28;20110;-61
2021/12/26 07:00:32;;;;;;;11.50;6.53;;;;;;;-2.01;100.00;98241.75;4974131;28;20317;-57
2021/12/26 07:02:57;;;;;;;13.33;6.07;;;;;;;-2.04;99.12;98256.78;4966777;28;20074;-59
2021/12/26 07:05:23;;;;;;;12.13;6.70;;;;;;;-2.07;98.83;98255.00;4968039;28;20409;-58
2021/12/26 07:07:48;;;;;;;10.10;5.67;;;;;;;-2.03;99.05;98260.97;4969179;28;20540;-59
2021/12/26 07:10:14;;;;;;;15.07;6.43;;;;;;;-1.99;100.00;98268.59;4974688;28;20042;-59
2021/12/26 07:12:40;;;;;;;10.57;6.40;;;;;;;-1.96;100.00;98263.69;4969562;28;20026;-59
2021/12/26 07:15:06;;;;;;;15.20;7.20;;;;;;;-2.02;100.00;98261.00;4970648;28;20170;-59
2021/12/26 07:17:32;;;;;;;12.60;6.83;;;;;;;-1.98;99.69;98261.91;4975649;28;20033;-58
2021/12/26 07:19:58;;;;;;;12.50;6.60;;;;;;;-1.93;98.98;98261.22;4977512;28;20121;-59
2021/12/26 07:22:24;;;;;;;11.30;6.43;;;;;;;-1.85;98.34;98263.91;4970005;28;20207;-59
2021/12/26 07:24:49;;;;;;;10.60;6.17;;;;;;;-1.84;96.92;98265.63;4970683;28;20093;-57
2021/12/26 07:27:15;;;;;;;13.53;6.47;;;;;;;-1.81;96.23;98268.19;4973273;28;20038;-57
2021/12/26 07:29:41;;;;;;;13.77;6.73;;;;;;;-1.89;93.06;98264.66;4972482;28;20440;-59
2021/12/26 07:32:08;;;;;;;17.07;6.77;;;;;;;-1.84;90.53;98273.16;4968355;28;20038;-59
2021/12/26 07:34:34;;;;;;;13.23;7.03;;;;;;;-1.79;90.24;98274.13;4970991;28;20030;-59
2021/12/26 07:37:01;;;;;;;11.57;6.00;;;;;;;-1.81;91.50;98274.88;4975058;28;20327;-58
2021/12/26 07:39:27;;;;;;;14.43;7.83;;;;;;;-1.73;90.08;98266.72;4974850;28;20082;-58
2021/12/26 07:41:52;;;;;;;15.20;7.47;;;;;;;-1.65;89.44;98276.94;4969508;28;20046;-59
2021/12/26 07:44:18;;;;;;;19.93;7.40;;;;;;;-1.68;87.42;98270.19;4973807;28;20109;-59
2021/12/26 07:46:43;;;;;;;14.20;6.20;;;;;;;-1.67;85.99;98274.41;4975445;28;20026;-59
2021/12/26 07:49:09;;;;;;;15.97;6.60;;;;;;;-1.75;82.15;98277.56;4971249;28;20042;-59
2021/12/26 07:51:36;;;;;;;12.40;5.83;;;;;;;-1.65;81.79;98276.94;4967942;28;20689;-58
2021/12/26 07:54:02;;;;;;;14.20;5.77;;;;;;;-1.60;81.75;98285.44;4976574;28;20336;-59
2021/12/26 07:56:31;;;;;;;11.60;5.67;;;;;;;-1.48;82.09;98284.03;4973908;28;20407;-59
2021/12/26 07:58:58;;;;;;;13.93;6.50;;;;;;;-1.56;81.37;98280.50;4972134;28;20033;-59
2021/12/26 08:01:27;;;;;;;13.43;6.53;;;;;;;-1.48;80.73;98283.19;4971492;28;20034;-60
2021/12/26 08:03:53;;;;;;;11.90;5.50;;;;;;;-1.45;79.08;98270.72;4973238;28;20733;-60
2021/12/26 08:06:20;;;;;;;14.00;5.57;;;;;;;-1.31;78.60;98286.06;4973858;28;20333;-60
2021/12/26 08:08:48;;;;;;;10.87;6.23;;;;;;;-1.25;78.63;98282.03;4970135;28;20763;-60
2021/12/26 08:11:15;;;;;;;10.17;4.97;;;;;;;-1.32;80.21;98285.25;4969049;28;20390;-59
2021/12/26 08:13:41;;;;;;;12.63;5.83;;;;;;;-1.22;83.94;98284.63;4977041;28;20543;-60
2021/12/26 08:16:07;;;;;;;11.90;6.43;;;;;;;-1.13;85.62;98284.81;4972283;28;20042;-59
2021/12/26 08:18:32;;;;;;;12.43;5.97;;;;;;;-1.04;86.30;98289.19;4968926;28;20413;-60
2021/12/26 08:20:58;;;;;;;15.17;7.83;;;;;;;-0.96;84.39;98292.72;4968055;28;20097;-58
2021/12/26 08:23:24;;;;;;;11.60;7.13;;;;;;;-0.92;83.54;98279.38;4972675;28;20085;-59
2021/12/26 08:25:49;;;;;;;12.97;6.73;;;;;;;-1.02;81.02;98280.84;4971755;28;20509;-59
2021/12/26 08:28:15;;;;;;;11.33;7.13;;;;;;;-0.97;80.19;98279.28;4972619;28;20897;-59
2021/12/26 08:30:43;;;;;;;13.23;6.57;;;;;;;-1.07;79.94;98272.38;4967022;28;20421;-59
2021/12/26 08:33:08;;;;;;;14.03;7.03;;;;;;;-0.96;79.39;98272.59;4973206;28;20125;-59
2021/12/26 08:35:35;;;;;;;16.60;7.33;;;;;;;-0.87;78.81;98279.47;4971575;28;20803;-60
2021/12/26 08:38:01;;;;;;;12.17;6.77;;;;;;;-0.80;77.81;98277.09;4966648;28;20113;-59
2021/12/26 08:40:27;;;;;;;15.10;7.53;;;;;;;-0.77;75.62;98279.69;4970954;28;20429;-59
2021/12/26 08:42:53;;;;;;;16.97;8.60;;;;;;;-0.91;74.63;98278.56;4973679;28;20290;-60
2021/12/26 08:45:19;;;;;;;14.60;7.93;;;;;;;-0.79;73.78;98277.97;4971117;28;20370;-60
2021/12/26 08:47:46;;;;;;;17.77;7.90;;;;;;;-1.01;72.75;98285.06;4968310;28;20023;-58
2021/12/26 08:50:12;;;;;;;14.73;7.97;;;;;;;-0.85;72.29;98288.78;4969235;28;20058;-59
2021/12/26 08:52:38;;;;;;;17.27;7.47;;;;;;;-0.86;72.35;98299.66;4959255;28;20263;-59
2021/12/26 08:55:04;;;;;;;11.07;6.87;;;;;;;-0.77;72.63;98297.31;4968719;28;20035;-60
2021/12/26 08:57:32;;;;;;;15.17;7.47;;;;;;;-0.60;71.96;98290.09;4970123;28;20041;-61
2021/12/26 08:59:57;;;;;;;15.57;7.17;;;;;;;-0.88;72.84;98297.91;4972247;28;20100;-62
2021/12/26 09:02:23;;;;;;;15.53;8.03;;;;;;;-0.94;73.70;98299.50;4975495;28;20031;-61
2021/12/26 09:04:48;;;;;;;16.43;6.97;;;;;;;-0.83;74.54;98286.25;4974367;28;20328;-62
2021/12/26 09:07:14;;;;;;;20.70;8.73;;;;;;;-0.71;74.78;98294.06;4971650;28;20558;-62
2021/12/26 09:09:40;;;;;;;17.27;9.63;;;;;;;-0.64;76.09;98291.72;4971344;28;20039;-61
2021/12/26 09:12:07;;;;;;;19.37;7.80;;;;;;;-0.58;75.81;98290.97;4974914;28;20154;-62
2021/12/26 09:14:33;;;;;;;14.63;7.53;;;;;;;-0.47;72.57;98292.84;4974127;28;20034;-60
2021/12/26 09:17:00;;;;;;;15.43;8.00;;;;;;;-0.51;71.63;98285.25;4975451;28;20041;-61
2021/12/26 09:19:28;;;;;;;18.63;7.63;;;;;;;-0.44;71.66;98289.56;4972956;28;20042;-61
2021/12/26 09:21:59;;;;;;;17.20;7.57;;;;;;;-0.37;69.04;98288.00;4975403;28;20085;-62
2021/12/26 09:24:24;;;;;;;20.00;8.83;;;;;;;-0.31;68.80;98291.47;4974167;28;20388;-62
2021/12/26 09:26:50;;;;;;;16.53;7.80;;;;;;;-0.30;70.45;98287.31;4969511;28;20038;-62
2021/12/26 09:29:15;;;;;;;14.80;7.63;;;;;;;-0.29;71.50;98287.31;4976505;28;20058;-61
2021/12/26 09:31:41;;;;;;;12.93;6.97;;;;;;;-0.49;70.89;98279.41;4979295;28;20057;-62
2021/12/26 09:34:06;;;;;;;16.00;7.27;;;;;;;-0.47;71.82;98284.47;4969545;28;20604;-60
2021/12/26 09:36:32;;;;;;;12.43;7.40;;;;;;;-0.31;71.82;98296.53;4969574;28;20037;-60
2021/12/26 09:38:58;;;;;;;15.37;8.50;;;;;;;-0.32;71.45;98289.78;4977423;28;20050;-60
2021/12/26 09:41:23;;;;;;;11.20;6.83;;;;;;;-0.24;69.53;98293.28;4978639;28;20036;-60
2021/12/26 09:43:50;;;;;;;13.83;7.63;;;;;;;-0.32;72.16;98276.34;4976603;28;20042;-62
2021/12/26 09:46:16;;;;;;;15.27;7.83;;;;;;;-0.38;72.88;98287.13;4969786;28;20081;-59
2021/12/26 09:48:41;;;;;;;21.10;7.80;;;;;;;-0.38;71.76;98278.75;4975757;28;20030;-61
2021/12/26 09:51:06;;;;;;;18.27;7.73;;;;;;;-0.32;71.12;98279.72;4970244;28;20066;-60
2021/12/26 09:53:40;;;;;;;15.63;8.07;;;;;;;-0.37;70.94;98278.78;4967729;28;20445;-59
2021/12/26 09:56:10;;;;;;;15.93;7.63;;;;;;;-0.23;71.81;98274.00;4969158;28;20034;-60
2021/12/26 09:58:51;;;;;;;19.43;9.33;;;;;;;-0.18;70.06;98270.75;4971516;28;20030;-60
2021/12/26 10:01:30;;;;;;;15.70;8.53;;;;;;;-0.21;71.96;98269.84;4974165;28;20137;-59
2021/12/26 10:03:56;;;;;;;15.57;8.67;;;;;;;-0.27;71.32;98274.75;4971587;28;20034;-60
2021/12/26 10:06:22;;;;;;;16.97;7.67;;;;;;;-0.19;69.70;98269.03;4972131;28;20079;-59
2021/12/26 10:08:57;;;;;;;16.23;8.23;;;;;;;-0.17;69.49;98269.88;4972185;28;20030;-60
2021/12/26 10:11:25;;;;;;;;;;;;;;;-0.21;68.89;98275.69;4976876;28;20046;-60
2021/12/26 10:13:56;;;;;;;22.57;8.63;;;;;;;-0.29;69.46;98266.31;4962696;28;19921;-59
2021/12/26 10:16:24;;;;;;;15.93;8.83;;;;;;;-0.24;69.67;98267.25;4969327;28;20038;-59
2021/12/26 10:18:51;;;;;;;22.43;8.87;;;;;;;-0.20;68.39;98259.78;4971929;28;20050;-61
2021/12/26 10:21:27;;;;;;;17.23;8.90;;;;;;;-0.20;70.27;98252.22;4969500;28;20124;-61
2021/12/26 10:23:55;;;;;;;18.67;8.50;;;;;;;-0.17;70.66;98256.47;4971197;28;20023;-60
2021/12/26 10:26:27;;;;;;;19.90;10.27;;;;;;;-0.26;71.43;98257.16;4976978;28;20046;-61
2021/12/26 10:29:04;;;;;;;18.30;11.37;;;;;;;-0.10;71.29;98261.63;4972948;28;20136;-61
2021/12/26 10:31:30;;;;;;;21.53;8.73;;;;;;;-0.30;71.28;98255.41;4970661;28;20031;-64
2021/12/26 10:33:55;;;;;;;23.60;10.03;;;;;;;-0.39;71.11;98254.41;4974419;28;20042;-61
2021/12/26 10:36:21;;;;;;;19.70;9.53;;;;;;;-0.22;70.36;98253.88;4979098;28;20552;-59
2021/12/26 10:39:06;;;;;;;16.53;9.00;;;;;;;-0.14;68.97;98256.53;4978006;28;20478;-61
2021/12/26 10:41:32;;;;;;;17.90;9.50;;;;;;;-0.08;69.40;98256.59;4976931;28;20113;-61
2021/12/26 10:43:57;;;;;;;20.97;9.53;;;;;;;-0.10;70.50;98253.22;4977226;28;20125;-60
2021/12/26 10:46:23;;;;;;;17.93;9.20;;;;;;;-0.10;71.63;98245.66;4980318;28;20034;-59
2021/12/26 10:48:48;;;;;;;18.33;9.50;;;;;;;-0.11;71.89;98246.47;4976634;28;20030;-62
2021/12/26 10:51:34;;;;;;;18.20;9.47;;;;;;;-0.13;72.71;98250.66;4970071;28;20578;-61
2021/12/26 10:54:19;;;;;;;18.20;8.00;;;;;;;-0.02;71.42;98241.59;4977184;28;20142;-62
2021/12/26 10:57:12;;;;;;;18.00;9.27;;;;;;;-0.03;72.85;98244.94;4973017;28;20031;-60
2021/12/26 10:59:41;;;;;;;15.40;8.37;;;;;;;-0.18;71.75;98245.53;4973298;28;20933;-61
2021/12/26 11:02:08;;;;;;;18.90;8.90;;;;;;;-0.31;72.47;98253.72;4972987;28;20034;-62
2021/12/26 11:04:36;;;;;;;21.00;10.07;;;;;;;-0.18;72.59;98250.59;4978457;28;20025;-62
2021/12/26 11:07:05;;;;;;;25.80;8.77;;;;;;;-0.20;73.41;98247.19;4974805;28;20540;-61
2021/12/26 11:09:31;;;;;;;18.80;9.03;;;;;;;-0.13;73.46;98243.09;4971560;28;20053;-61
2021/12/26 11:12:06;;;;;;;21.23;9.57;;;;;;;-0.05;71.86;98249.13;4970931;28;20031;-59
2021/12/26 11:14:32;;;;;;;17.15;9.40;;;;;;;0.04;72.34;98244.22;4971892;28;20054;-57
2021/12/26 11:16:58;;;;;;;20.23;9.03;;;;;;;-0.09;71.88;98240.66;4973752;28;20082;-60
2021/12/26 11:19:45;;;;;;;20.73;10.00;;;;;;;-0.04;72.67;98238.19;4974200;28;20042;-59
2021/12/26 11:22:10;;;;;;;21.00;9.73;;;;;;;0.12;72.30;98241.81;4977319;28;20616;-60
2021/12/26 11:24:37;;;;;;;19.23;9.00;;;;;;;-0.18;74.29;98232.94;4972775;28;20061;-58
2021/12/26 11:27:03;;;;;;;20.17;9.87;;;;;;;-0.06;74.94;98229.78;4971329;28;20109;-59
2021/12/26 11:29:28;;;;;;;22.13;10.53;;;;;;;-0.06;75.11;98225.59;4977032;28;20040;-58